Terminal Aerodrome Forecast
Issued by NWS

Home | Current Version | Previous Version | Text Only | Print | Product List | Glossary Off
Versions: 1 2 3 4 5 6 7 8 9 10 11 12 13

000
FTUS45 KGGW 191120
TAFGDV
TAF
KGDV 191120Z 1912/2012 06005KT 1/2SM FZFG BKN002
     FM191400 07006KT 3SM BR SCT030
     FM191500 09010KT P6SM FEW070=

USA.gov is the U.S. government's official web portal to all federal, state and local government web resources and services.